CY-0004 weather

Kingsfield Air Base
Larnarca District, Cyprus

Public forecast

Using degrees Celsius for public forecast. Weather courtesy of forecast.io.

Closest aviation weather report (METAR) to Kingsfield Air Base

Closest report is Larnaca International Airport, 9.5 nm (17.6 km) SSW. Retrieved 2019/11/22 02:30 UTC (0 seconds ago):

LCLK 220230Z 31004KT CAVOK 14/11 Q1016 NOSIG

Closest aviation forecast (TAF) to Kingsfield Air Base

Closest forecast is Larnaca International Airport, 9.5 nm (17.6 km) SSW. Retrieved 2019-11-22 00:30 UTC (2 hours ago):

TAF LCLK 212330Z 2200/2224 32006KT 9999 FEW030 BECMG 2207/2211 09010KT BECMG 2215/2219 34007KT